sensor_id;sensor_type;location;lat;lon;timestamp;temperature;humidity
52565;DHT22;38460;53.106;7.004;2024-03-22T00:01:48;9.20;99.90
52565;DHT22;38460;53.106;7.004;2024-03-22T00:04:14;9.20;99.90
52565;DHT22;38460;53.106;7.004;2024-03-22T00:06:42;9.20;99.90
52565;DHT22;38460;53.106;7.004;2024-03-22T00:09:08;9.20;99.90
52565;DHT22;38460;53.106;7.004;2024-03-22T00:11:34;9.30;99.90
52565;DHT22;38460;53.106;7.004;2024-03-22T00:13:59;9.20;99.90
52565;DHT22;38460;53.106;7.004;2024-03-22T00:16:25;9.30;99.90
52565;DHT22;38460;53.106;7.004;2024-03-22T00:18:51;9.30;99.90
52565;DHT22;38460;53.106;7.004;2024-03-22T00:21:17;9.20;99.90
52565;DHT22;38460;53.106;7.004;2024-03-22T00:23:44;9.30;99.90
52565;DHT22;38460;53.106;7.004;2024-03-22T00:26:10;9.30;99.90
52565;DHT22;38460;53.106;7.004;2024-03-22T00:28:36;9.30;99.90
52565;DHT22;38460;53.106;7.004;2024-03-22T00:31:01;9.30;99.90
52565;DHT22;38460;53.106;7.004;2024-03-22T00:33:27;9.30;99.90
52565;DHT22;38460;53.106;7.004;2024-03-22T00:35:53;9.30;99.90
52565;DHT22;38460;53.106;7.004;2024-03-22T00:38:19;9.30;99.90
52565;DHT22;38460;53.106;7.004;2024-03-22T00:40:44;9.30;99.90
52565;DHT22;38460;53.106;7.004;2024-03-22T00:43:10;9.30;99.90
52565;DHT22;38460;53.106;7.004;2024-03-22T00:45:36;9.30;99.90
52565;DHT22;38460;53.106;7.004;2024-03-22T00:48:01;9.30;99.90
52565;DHT22;38460;53.106;7.004;2024-03-22T00:50:27;9.40;99.90
52565;DHT22;38460;53.106;7.004;2024-03-22T00:52:54;9.30;99.90
52565;DHT22;38460;53.106;7.004;2024-03-22T00:55:23;9.30;99.90
52565;DHT22;38460;53.106;7.004;2024-03-22T00:57:49;9.40;99.90
52565;DHT22;38460;53.106;7.004;2024-03-22T01:00:15;9.40;99.90
52565;DHT22;38460;53.106;7.004;2024-03-22T01:02:42;9.40;99.90
52565;DHT22;38460;53.106;7.004;2024-03-22T01:05:08;9.40;99.90
52565;DHT22;38460;53.106;7.004;2024-03-22T01:07:35;9.40;99.90
52565;DHT22;38460;53.106;7.004;2024-03-22T01:10:00;9.40;99.90
52565;DHT22;38460;53.106;7.004;2024-03-22T01:12:26;9.40;99.90
52565;DHT22;38460;53.106;7.004;2024-03-22T01:14:52;9.50;99.90
52565;DHT22;38460;53.106;7.004;2024-03-22T01:17:18;9.40;99.90
52565;DHT22;38460;53.106;7.004;2024-03-22T01:19:43;9.40;99.90
52565;DHT22;38460;53.106;7.004;2024-03-22T01:22:09;9.40;99.90
52565;DHT22;38460;53.106;7.004;2024-03-22T01:24:35;9.40;99.90
52565;DHT22;38460;53.106;7.004;2024-03-22T01:27:01;9.40;99.90
52565;DHT22;38460;53.106;7.004;2024-03-22T01:29:26;9.50;99.90
52565;DHT22;38460;53.106;7.004;2024-03-22T01:31:55;9.50;99.90
52565;DHT22;38460;53.106;7.004;2024-03-22T01:34:21;9.50;99.90
52565;DHT22;38460;53.106;7.004;2024-03-22T01:36:47;9.50;99.90
52565;DHT22;38460;53.106;7.004;2024-03-22T01:39:13;9.50;99.90
52565;DHT22;38460;53.106;7.004;2024-03-22T01:41:39;9.50;99.90
52565;DHT22;38460;53.106;7.004;2024-03-22T01:44:05;9.50;99.90
52565;DHT22;38460;53.106;7.004;2024-03-22T01:46:31;9.50;99.90
52565;DHT22;38460;53.106;7.004;2024-03-22T01:48:57;9.50;99.90
52565;DHT22;38460;53.106;7.004;2024-03-22T01:51:23;9.60;99.90
52565;DHT22;38460;53.106;7.004;2024-03-22T01:53:49;9.50;99.90
52565;DHT22;38460;53.106;7.004;2024-03-22T01:56:15;9.60;99.90
52565;DHT22;38460;53.106;7.004;2024-03-22T01:58:41;9.60;99.90
52565;DHT22;38460;53.106;7.004;2024-03-22T02:01:07;9.60;99.90
52565;DHT22;38460;53.106;7.004;2024-03-22T02:03:33;9.60;99.90
52565;DHT22;38460;53.106;7.004;2024-03-22T02:05:58;9.60;99.90
52565;DHT22;38460;53.106;7.004;2024-03-22T02:08:24;9.60;99.90
52565;DHT22;38460;53.106;7.004;2024-03-22T02:10:50;9.60;99.90
52565;DHT22;38460;53.106;7.004;2024-03-22T02:13:16;9.60;99.90
52565;DHT22;38460;53.106;7.004;2024-03-22T02:15:42;9.70;99.90
52565;DHT22;38460;53.106;7.004;2024-03-22T02:18:07;9.70;99.90
52565;DHT22;38460;53.106;7.004;2024-03-22T02:20:33;9.70;99.90
52565;DHT22;38460;53.106;7.004;2024-03-22T02:22:59;9.70;99.90
52565;DHT22;38460;53.106;7.004;2024-03-22T02:25:24;9.70;99.90
52565;DHT22;38460;53.106;7.004;2024-03-22T02:27:50;9.70;99.90
52565;DHT22;38460;53.106;7.004;2024-03-22T02:30:17;9.70;99.90
52565;DHT22;38460;53.106;7.004;2024-03-22T02:32:42;9.70;99.90
52565;DHT22;38460;53.106;7.004;2024-03-22T02:35:09;9.70;99.90
52565;DHT22;38460;53.106;7.004;2024-03-22T02:37:34;9.80;99.90
52565;DHT22;38460;53.106;7.004;2024-03-22T02:40:00;9.80;99.90
52565;DHT22;38460;53.106;7.004;2024-03-22T02:42:26;9.80;99.90
52565;DHT22;38460;53.106;7.004;2024-03-22T02:44:52;9.80;99.90
52565;DHT22;38460;53.106;7.004;2024-03-22T02:47:18;9.80;99.90
52565;DHT22;38460;53.106;7.004;2024-03-22T02:49:43;9.80;99.90
52565;DHT22;38460;53.106;7.004;2024-03-22T02:52:10;9.80;99.90
52565;DHT22;38460;53.106;7.004;2024-03-22T02:54:35;9.90;99.90
52565;DHT22;38460;53.106;7.004;2024-03-22T02:57:01;9.90;99.90
52565;DHT22;38460;53.106;7.004;2024-03-22T02:59:28;9.90;99.90
52565;DHT22;38460;53.106;7.004;2024-03-22T03:01:54;9.90;99.90
52565;DHT22;38460;53.106;7.004;2024-03-22T03:04:19;9.90;99.90
52565;DHT22;38460;53.106;7.004;2024-03-22T03:06:45;9.90;99.90
52565;DHT22;38460;53.106;7.004;2024-03-22T03:09:12;10.00;99.90
52565;DHT22;38460;53.106;7.004;2024-03-22T03:11:41;10.00;99.90
52565;DHT22;38460;53.106;7.004;2024-03-22T03:14:06;10.00;99.90
52565;DHT22;38460;53.106;7.004;2024-03-22T03:16:32;10.00;99.90
52565;DHT22;38460;53.106;7.004;2024-03-22T03:18:58;10.00;99.90
52565;DHT22;38460;53.106;7.004;2024-03-22T03:21:24;10.00;99.90
52565;DHT22;38460;53.106;7.004;2024-03-22T03:23:50;10.00;99.90
52565;DHT22;38460;53.106;7.004;2024-03-22T03:26:16;10.00;99.90
52565;DHT22;38460;53.106;7.004;2024-03-22T03:28:41;10.00;99.90
52565;DHT22;38460;53.106;7.004;2024-03-22T03:31:07;10.00;99.90
52565;DHT22;38460;53.106;7.004;2024-03-22T03:33:33;10.00;99.90
52565;DHT22;38460;53.106;7.004;2024-03-22T03:35:59;10.00;99.90
52565;DHT22;38460;53.106;7.004;2024-03-22T03:38:24;10.00;99.90
52565;DHT22;38460;53.106;7.004;2024-03-22T03:40:50;10.00;99.90
52565;DHT22;38460;53.106;7.004;2024-03-22T03:43:16;10.00;99.90
52565;DHT22;38460;53.106;7.004;2024-03-22T03:45:41;10.00;99.90
52565;DHT22;38460;53.106;7.004;2024-03-22T03:48:07;10.00;99.90
52565;DHT22;38460;53.106;7.004;2024-03-22T03:50:33;10.00;99.90
52565;DHT22;38460;53.106;7.004;2024-03-22T03:52:59;10.00;99.90
52565;DHT22;38460;53.106;7.004;2024-03-22T03:55:24;10.00;99.90
52565;DHT22;38460;53.106;7.004;2024-03-22T03:57:50;10.00;99.90
52565;DHT22;38460;53.106;7.004;2024-03-22T04:00:18;10.00;99.90
52565;DHT22;38460;53.106;7.004;2024-03-22T04:02:43;10.00;99.90
52565;DHT22;38460;53.106;7.004;2024-03-22T04:05:09;10.00;99.90
52565;DHT22;38460;53.106;7.004;2024-03-22T04:07:35;10.00;99.90
52565;DHT22;38460;53.106;7.004;2024-03-22T04:10:01;10.00;99.90
52565;DHT22;38460;53.106;7.004;2024-03-22T04:12:27;10.10;99.90
52565;DHT22;38460;53.106;7.004;2024-03-22T04:14:53;10.00;99.90
52565;DHT22;38460;53.106;7.004;2024-03-22T04:17:18;10.10;99.90
52565;DHT22;38460;53.106;7.004;2024-03-22T04:19:44;10.10;99.90
52565;DHT22;38460;53.106;7.004;2024-03-22T04:22:10;10.10;99.90
52565;DHT22;38460;53.106;7.004;2024-03-22T04:24:35;10.10;99.90
52565;DHT22;38460;53.106;7.004;2024-03-22T04:27:01;10.10;99.90
52565;DHT22;38460;53.106;7.004;2024-03-22T04:29:27;10.10;99.90
52565;DHT22;38460;53.106;7.004;2024-03-22T04:31:53;10.10;99.90
52565;DHT22;38460;53.106;7.004;2024-03-22T04:34:18;10.10;99.90
52565;DHT22;38460;53.106;7.004;2024-03-22T04:36:44;10.20;99.90
52565;DHT22;38460;53.106;7.004;2024-03-22T04:39:10;10.10;99.90
52565;DHT22;38460;53.106;7.004;2024-03-22T04:41:37;10.20;99.90
52565;DHT22;38460;53.106;7.004;2024-03-22T04:44:03;10.20;99.90
52565;DHT22;38460;53.106;7.004;2024-03-22T04:46:29;10.20;99.90
52565;DHT22;38460;53.106;7.004;2024-03-22T04:48:55;10.20;99.90
52565;DHT22;38460;53.106;7.004;2024-03-22T04:51:20;10.20;99.90
52565;DHT22;38460;53.106;7.004;2024-03-22T04:53:46;10.20;99.90
52565;DHT22;38460;53.106;7.004;2024-03-22T04:56:12;10.20;99.90
52565;DHT22;38460;53.106;7.004;2024-03-22T04:58:37;10.20;99.90
52565;DHT22;38460;53.106;7.004;2024-03-22T05:01:03;10.20;99.90
52565;DHT22;38460;53.106;7.004;2024-03-22T05:03:29;10.20;99.90
52565;DHT22;38460;53.106;7.004;2024-03-22T05:05:55;10.20;99.90
52565;DHT22;38460;53.106;7.004;2024-03-22T05:08:21;10.20;99.90
52565;DHT22;38460;53.106;7.004;2024-03-22T05:10:47;10.20;99.90
52565;DHT22;38460;53.106;7.004;2024-03-22T05:13:14;10.20;99.90
52565;DHT22;38460;53.106;7.004;2024-03-22T05:15:39;10.20;99.90
52565;DHT22;38460;53.106;7.004;2024-03-22T05:18:05;10.20;99.90
52565;DHT22;38460;53.106;7.004;2024-03-22T05:20:31;10.20;99.90
52565;DHT22;38460;53.106;7.004;2024-03-22T05:22:57;10.30;99.90
52565;DHT22;38460;53.106;7.004;2024-03-22T05:25:22;10.20;99.90
52565;DHT22;38460;53.106;7.004;2024-03-22T05:27:48;10.20;99.90
52565;DHT22;38460;53.106;7.004;2024-03-22T05:30:14;10.20;99.90
52565;DHT22;38460;53.106;7.004;2024-03-22T05:32:40;10.20;99.90
52565;DHT22;38460;53.106;7.004;2024-03-22T05:35:06;10.30;99.90
52565;DHT22;38460;53.106;7.004;2024-03-22T05:37:32;10.20;99.90
52565;DHT22;38460;53.106;7.004;2024-03-22T05:40:00;10.20;99.90
52565;DHT22;38460;53.106;7.004;2024-03-22T05:42:26;10.20;99.90
52565;DHT22;38460;53.106;7.004;2024-03-22T05:44:52;10.20;99.90
52565;DHT22;38460;53.106;7.004;2024-03-22T05:47:18;10.20;99.90
52565;DHT22;38460;53.106;7.004;2024-03-22T05:49:45;10.30;99.90
52565;DHT22;38460;53.106;7.004;2024-03-22T05:52:11;10.30;99.90
52565;DHT22;38460;53.106;7.004;2024-03-22T05:54:37;10.20;99.90
52565;DHT22;38460;53.106;7.004;2024-03-22T05:57:03;10.20;99.90
52565;DHT22;38460;53.106;7.004;2024-03-22T05:59:31;10.20;99.90
52565;DHT22;38460;53.106;7.004;2024-03-22T06:01:56;10.20;99.90
52565;DHT22;38460;53.106;7.004;2024-03-22T06:04:22;10.20;99.90
52565;DHT22;38460;53.106;7.004;2024-03-22T06:06:49;10.20;99.90
52565;DHT22;38460;53.106;7.004;2024-03-22T06:09:15;10.10;99.90
52565;DHT22;38460;53.106;7.004;2024-03-22T06:11:52;10.10;99.90
52565;DHT22;38460;53.106;7.004;2024-03-22T06:14:18;10.10;99.90
52565;DHT22;38460;53.106;7.004;2024-03-22T06:16:44;10.10;99.90
52565;DHT22;38460;53.106;7.004;2024-03-22T06:19:09;10.00;99.90
52565;DHT22;38460;53.106;7.004;2024-03-22T06:21:35;10.00;99.90
52565;DHT22;38460;53.106;7.004;2024-03-22T06:24:01;10.00;99.90
52565;DHT22;38460;53.106;7.004;2024-03-22T06:26:28;10.00;99.90
52565;DHT22;38460;53.106;7.004;2024-03-22T06:28:54;10.00;99.90
52565;DHT22;38460;53.106;7.004;2024-03-22T06:31:20;10.00;99.90
52565;DHT22;38460;53.106;7.004;2024-03-22T06:33:46;10.00;99.90
52565;DHT22;38460;53.106;7.004;2024-03-22T06:36:11;10.70;99.90
52565;DHT22;38460;53.106;7.004;2024-03-22T06:38:37;10.00;99.90
52565;DHT22;38460;53.106;7.004;2024-03-22T06:41:03;9.90;99.90
52565;DHT22;38460;53.106;7.004;2024-03-22T06:43:29;9.90;99.90
52565;DHT22;38460;53.106;7.004;2024-03-22T06:45:55;9.90;99.90
52565;DHT22;38460;53.106;7.004;2024-03-22T06:48:21;9.90;99.90
52565;DHT22;38460;53.106;7.004;2024-03-22T06:50:46;9.90;99.90
52565;DHT22;38460;53.106;7.004;2024-03-22T06:53:12;9.90;99.90
52565;DHT22;38460;53.106;7.004;2024-03-22T06:55:38;9.90;99.90
52565;DHT22;38460;53.106;7.004;2024-03-22T06:58:04;9.90;99.90
52565;DHT22;38460;53.106;7.004;2024-03-22T07:00:30;9.90;99.90
52565;DHT22;38460;53.106;7.004;2024-03-22T07:02:56;9.90;99.90
52565;DHT22;38460;53.106;7.004;2024-03-22T07:05:22;9.90;99.90
52565;DHT22;38460;53.106;7.004;2024-03-22T07:07:47;9.90;99.90
52565;DHT22;38460;53.106;7.004;2024-03-22T07:10:15;9.90;99.90
52565;DHT22;38460;53.106;7.004;2024-03-22T07:12:41;9.90;99.90
52565;DHT22;38460;53.106;7.004;2024-03-22T07:15:07;9.90;99.90
52565;DHT22;38460;53.106;7.004;2024-03-22T07:17:32;9.90;99.90
52565;DHT22;38460;53.106;7.004;2024-03-22T07:19:58;9.90;99.90
52565;DHT22;38460;53.106;7.004;2024-03-22T07:22:24;9.90;99.90
52565;DHT22;38460;53.106;7.004;2024-03-22T07:24:50;9.90;99.90
52565;DHT22;38460;53.106;7.004;2024-03-22T07:27:16;9.90;99.90
52565;DHT22;38460;53.106;7.004;2024-03-22T07:29:43;9.90;99.90
52565;DHT22;38460;53.106;7.004;2024-03-22T07:32:09;9.90;99.90
52565;DHT22;38460;53.106;7.004;2024-03-22T07:34:35;9.90;99.90
52565;DHT22;38460;53.106;7.004;2024-03-22T07:37:01;9.90;99.90
52565;DHT22;38460;53.106;7.004;2024-03-22T07:39:27;9.90;99.90
52565;DHT22;38460;53.106;7.004;2024-03-22T07:41:52;9.90;99.90
52565;DHT22;38460;53.106;7.004;2024-03-22T07:44:18;9.90;99.90
52565;DHT22;38460;53.106;7.004;2024-03-22T07:46:45;9.90;99.90
52565;DHT22;38460;53.106;7.004;2024-03-22T07:49:12;9.90;99.90
52565;DHT22;38460;53.106;7.004;2024-03-22T07:51:38;9.90;99.90
52565;DHT22;38460;53.106;7.004;2024-03-22T07:54:03;9.90;99.90
52565;DHT22;38460;53.106;7.004;2024-03-22T07:56:29;9.90;99.90
52565;DHT22;38460;53.106;7.004;2024-03-22T07:58:55;9.90;99.90
52565;DHT22;38460;53.106;7.004;2024-03-22T08:01:21;9.90;99.90
52565;DHT22;38460;53.106;7.004;2024-03-22T08:03:47;9.90;99.90
52565;DHT22;38460;53.106;7.004;2024-03-22T08:06:13;9.90;99.90
52565;DHT22;38460;53.106;7.004;2024-03-22T08:08:38;9.90;99.90
52565;DHT22;38460;53.106;7.004;2024-03-22T08:11:05;9.90;99.90
52565;DHT22;38460;53.106;7.004;2024-03-22T08:13:30;10.00;99.90
52565;DHT22;38460;53.106;7.004;2024-03-22T08:15:56;10.00;99.90
52565;DHT22;38460;53.106;7.004;2024-03-22T08:18:22;9.90;99.90
52565;DHT22;38460;53.106;7.004;2024-03-22T08:20:48;10.00;99.90
52565;DHT22;38460;53.106;7.004;2024-03-22T08:23:13;9.90;99.90
52565;DHT22;38460;53.106;7.004;2024-03-22T08:25:39;9.90;99.90
52565;DHT22;38460;53.106;7.004;2024-03-22T08:28:05;9.90;99.90
52565;DHT22;38460;53.106;7.004;2024-03-22T08:30:31;9.90;99.90
52565;DHT22;38460;53.106;7.004;2024-03-22T08:32:56;9.90;99.90
52565;DHT22;38460;53.106;7.004;2024-03-22T08:35:25;9.90;99.90
52565;DHT22;38460;53.106;7.004;2024-03-22T08:37:50;9.90;99.90
52565;DHT22;38460;53.106;7.004;2024-03-22T08:40:16;9.90;99.90
52565;DHT22;38460;53.106;7.004;2024-03-22T08:42:42;9.90;99.90
52565;DHT22;38460;53.106;7.004;2024-03-22T08:45:08;9.90;99.90
52565;DHT22;38460;53.106;7.004;2024-03-22T08:47:34;9.90;99.90
52565;DHT22;38460;53.106;7.004;2024-03-22T08:50:00;9.90;99.90
52565;DHT22;38460;53.106;7.004;2024-03-22T08:52:26;9.90;99.90
52565;DHT22;38460;53.106;7.004;2024-03-22T08:54:54;10.00;99.90
52565;DHT22;38460;53.106;7.004;2024-03-22T08:57:20;10.00;99.90
52565;DHT22;38460;53.106;7.004;2024-03-22T08:59:46;10.00;99.90
52565;DHT22;38460;53.106;7.004;2024-03-22T09:02:12;10.00;99.90
52565;DHT22;38460;53.106;7.004;2024-03-22T09:04:38;10.00;99.90
52565;DHT22;38460;53.106;7.004;2024-03-22T09:07:04;10.00;99.90
52565;DHT22;38460;53.106;7.004;2024-03-22T09:09:30;10.00;99.90
52565;DHT22;38460;53.106;7.004;2024-03-22T09:11:56;10.00;99.90
52565;DHT22;38460;53.106;7.004;2024-03-22T09:14:22;10.00;99.90
52565;DHT22;38460;53.106;7.004;2024-03-22T09:16:51;10.10;99.90
52565;DHT22;38460;53.106;7.004;2024-03-22T09:19:18;10.00;99.90
52565;DHT22;38460;53.106;7.004;2024-03-22T09:21:43;10.10;99.90
52565;DHT22;38460;53.106;7.004;2024-03-22T09:24:09;10.00;99.90
52565;DHT22;38460;53.106;7.004;2024-03-22T09:26:35;10.10;99.90
52565;DHT22;38460;53.106;7.004;2024-03-22T09:29:01;10.10;99.90
52565;DHT22;38460;53.106;7.004;2024-03-22T09:31:27;10.10;99.90
52565;DHT22;38460;53.106;7.004;2024-03-22T09:33:53;10.10;99.90
52565;DHT22;38460;53.106;7.004;2024-03-22T09:36:18;10.10;99.90
52565;DHT22;38460;53.106;7.004;2024-03-22T09:38:44;10.10;99.90
52565;DHT22;38460;53.106;7.004;2024-03-22T09:41:10;10.10;99.90
52565;DHT22;38460;53.106;7.004;2024-03-22T09:43:39;10.10;99.90
52565;DHT22;38460;53.106;7.004;2024-03-22T09:46:05;10.10;99.90
52565;DHT22;38460;53.106;7.004;2024-03-22T09:48:31;10.10;99.90
52565;DHT22;38460;53.106;7.004;2024-03-22T09:50:58;10.10;99.90
52565;DHT22;38460;53.106;7.004;2024-03-22T09:53:27;10.20;99.90
52565;DHT22;38460;53.106;7.004;2024-03-22T09:55:56;10.20;99.90
52565;DHT22;38460;53.106;7.004;2024-03-22T09:58:24;10.20;99.90
52565;DHT22;38460;53.106;7.004;2024-03-22T10:00:50;10.20;99.90
52565;DHT22;38460;53.106;7.004;2024-03-22T10:03:16;10.20;99.90
52565;DHT22;38460;53.106;7.004;2024-03-22T10:05:42;10.20;99.90
52565;DHT22;38460;53.106;7.004;2024-03-22T10:08:08;10.20;99.90
52565;DHT22;38460;53.106;7.004;2024-03-22T10:10:34;10.20;99.90
52565;DHT22;38460;53.106;7.004;2024-03-22T10:13:01;10.20;99.90
52565;DHT22;38460;53.106;7.004;2024-03-22T10:15:27;10.20;99.90
52565;DHT22;38460;53.106;7.004;2024-03-22T10:17:53;10.20;99.90
52565;DHT22;38460;53.106;7.004;2024-03-22T10:20:21;10.20;99.90
52565;DHT22;38460;53.106;7.004;2024-03-22T10:22:58;10.20;99.90
52565;DHT22;38460;53.106;7.004;2024-03-22T10:25:28;10.20;99.90
52565;DHT22;38460;53.106;7.004;2024-03-22T10:27:55;10.20;99.90
52565;DHT22;38460;53.106;7.004;2024-03-22T10:30:22;10.20;99.90
52565;DHT22;38460;53.106;7.004;2024-03-22T10:32:52;10.20;99.90
52565;DHT22;38460;53.106;7.004;2024-03-22T10:35:18;10.30;99.90
52565;DHT22;38460;53.106;7.004;2024-03-22T10:37:44;10.30;99.90
52565;DHT22;38460;53.106;7.004;2024-03-22T10:40:10;10.30;99.90
52565;DHT22;38460;53.106;7.004;2024-03-22T10:42:41;10.30;99.90
52565;DHT22;38460;53.106;7.004;2024-03-22T10:45:09;10.30;99.90
52565;DHT22;38460;53.106;7.004;2024-03-22T10:47:35;10.30;99.90
52565;DHT22;38460;53.106;7.004;2024-03-22T10:50:10;10.30;99.90
52565;DHT22;38460;53.106;7.004;2024-03-22T10:53:01;10.30;99.90
52565;DHT22;38460;53.106;7.004;2024-03-22T10:55:32;10.30;99.90
52565;DHT22;38460;53.106;7.004;2024-03-22T10:57:58;10.40;99.90
52565;DHT22;38460;53.106;7.004;2024-03-22T11:00:31;10.40;99.90
52565;DHT22;38460;53.106;7.004;2024-03-22T11:02:57;10.40;99.90
52565;DHT22;38460;53.106;7.004;2024-03-22T11:05:23;10.40;99.90
52565;DHT22;38460;53.106;7.004;2024-03-22T11:08:04;10.40;99.90
52565;DHT22;38460;53.106;7.004;2024-03-22T11:10:34;10.50;99.90
52565;DHT22;38460;53.106;7.004;2024-03-22T11:13:07;10.50;99.90
52565;DHT22;38460;53.106;7.004;2024-03-22T11:15:34;10.50;99.90
52565;DHT22;38460;53.106;7.004;2024-03-22T11:18:00;10.50;99.90
52565;DHT22;38460;53.106;7.004;2024-03-22T11:20:27;10.60;99.90
52565;DHT22;38460;53.106;7.004;2024-03-22T11:22:54;10.60;99.90
52565;DHT22;38460;53.106;7.004;2024-03-22T11:25:20;10.60;99.90
52565;DHT22;38460;53.106;7.004;2024-03-22T11:27:46;10.60;99.90
52565;DHT22;38460;53.106;7.004;2024-03-22T11:30:12;10.60;99.90
52565;DHT22;38460;53.106;7.004;2024-03-22T11:32:39;10.60;99.90
52565;DHT22;38460;53.106;7.004;2024-03-22T11:35:11;10.60;99.90
52565;DHT22;38460;53.106;7.004;2024-03-22T11:37:40;10.60;99.90
52565;DHT22;38460;53.106;7.004;2024-03-22T11:40:09;10.60;99.90
52565;DHT22;38460;53.106;7.004;2024-03-22T11:42:37;10.60;99.90
52565;DHT22;38460;53.106;7.004;2024-03-22T11:45:04;10.60;99.90
52565;DHT22;38460;53.106;7.004;2024-03-22T11:47:33;10.60;99.90
52565;DHT22;38460;53.106;7.004;2024-03-22T11:49:59;10.70;99.90
52565;DHT22;38460;53.106;7.004;2024-03-22T11:52:25;10.60;99.90
52565;DHT22;38460;53.106;7.004;2024-03-22T11:54:55;10.60;99.90
52565;DHT22;38460;53.106;7.004;2024-03-22T11:57:21;10.60;99.90
52565;DHT22;38460;53.106;7.004;2024-03-22T11:59:47;10.60;99.90
52565;DHT22;38460;53.106;7.004;2024-03-22T12:02:13;10.60;99.90
52565;DHT22;38460;53.106;7.004;2024-03-22T12:04:45;10.60;99.90
52565;DHT22;38460;53.106;7.004;2024-03-22T12:07:15;10.70;99.90
52565;DHT22;38460;53.106;7.004;2024-03-22T12:09:41;10.70;99.90
52565;DHT22;38460;53.106;7.004;2024-03-22T12:12:08;10.70;99.90
52565;DHT22;38460;53.106;7.004;2024-03-22T12:14:35;10.70;99.90
52565;DHT22;38460;53.106;7.004;2024-03-22T12:17:05;10.70;99.90
52565;DHT22;38460;53.106;7.004;2024-03-22T12:19:31;10.70;99.90
52565;DHT22;38460;53.106;7.004;2024-03-22T12:21:57;10.70;99.90
52565;DHT22;38460;53.106;7.004;2024-03-22T12:24:23;10.70;99.90
52565;DHT22;38460;53.106;7.004;2024-03-22T12:26:50;10.70;99.90
52565;DHT22;38460;53.106;7.004;2024-03-22T12:29:16;10.70;99.90
52565;DHT22;38460;53.106;7.004;2024-03-22T12:31:42;10.60;99.90
52565;DHT22;38460;53.106;7.004;2024-03-22T12:34:08;10.60;99.90
52565;DHT22;38460;53.106;7.004;2024-03-22T12:36:34;10.60;99.90
52565;DHT22;38460;53.106;7.004;2024-03-22T12:38:59;10.60;99.90
52565;DHT22;38460;53.106;7.004;2024-03-22T12:41:26;10.60;99.90
52565;DHT22;38460;53.106;7.004;2024-03-22T12:43:52;10.60;99.90
52565;DHT22;38460;53.106;7.004;2024-03-22T12:46:18;10.60;99.90
52565;DHT22;38460;53.106;7.004;2024-03-22T12:48:44;10.60;99.90
52565;DHT22;38460;53.106;7.004;2024-03-22T12:51:09;10.60;99.90
52565;DHT22;38460;53.106;7.004;2024-03-22T12:53:35;10.60;99.90
52565;DHT22;38460;53.106;7.004;2024-03-22T12:56:01;10.50;99.90
52565;DHT22;38460;53.106;7.004;2024-03-22T12:58:30;10.50;99.90
52565;DHT22;38460;53.106;7.004;2024-03-22T13:00:57;11.10;99.90
52565;DHT22;38460;53.106;7.004;2024-03-22T13:03:22;10.50;99.90
52565;DHT22;38460;53.106;7.004;2024-03-22T13:05:48;10.50;99.90
52565;DHT22;38460;53.106;7.004;2024-03-22T13:08:14;10.40;99.90
52565;DHT22;38460;53.106;7.004;2024-03-22T13:10:39;10.40;99.90
52565;DHT22;38460;53.106;7.004;2024-03-22T13:13:09;10.50;99.90
52565;DHT22;38460;53.106;7.004;2024-03-22T13:15:35;10.50;99.90
52565;DHT22;38460;53.106;7.004;2024-03-22T13:18:05;10.50;99.90
52565;DHT22;38460;53.106;7.004;2024-03-22T13:20:31;10.50;99.90
52565;DHT22;38460;53.106;7.004;2024-03-22T13:22:57;10.50;99.90
52565;DHT22;38460;53.106;7.004;2024-03-22T13:25:23;10.50;99.90
52565;DHT22;38460;53.106;7.004;2024-03-22T13:27:48;10.50;99.90
52565;DHT22;38460;53.106;7.004;2024-03-22T13:30:14;10.60;99.90
52565;DHT22;38460;53.106;7.004;2024-03-22T13:32:41;10.50;99.90
52565;DHT22;38460;53.106;7.004;2024-03-22T13:35:07;10.50;99.90
52565;DHT22;38460;53.106;7.004;2024-03-22T13:37:32;10.60;99.90
52565;DHT22;38460;53.106;7.004;2024-03-22T13:39:58;10.50;99.90
52565;DHT22;38460;53.106;7.004;2024-03-22T13:42:26;10.50;99.90
52565;DHT22;38460;53.106;7.004;2024-03-22T13:44:52;10.50;99.90
52565;DHT22;38460;53.106;7.004;2024-03-22T13:47:18;10.50;99.90
52565;DHT22;38460;53.106;7.004;2024-03-22T13:49:44;10.50;99.90
52565;DHT22;38460;53.106;7.004;2024-03-22T13:52:13;10.60;99.90
52565;DHT22;38460;53.106;7.004;2024-03-22T13:54:39;10.60;99.90
52565;DHT22;38460;53.106;7.004;2024-03-22T13:57:05;10.50;99.90
52565;DHT22;38460;53.106;7.004;2024-03-22T13:59:31;10.50;99.90
52565;DHT22;38460;53.106;7.004;2024-03-22T14:01:57;10.50;99.90
52565;DHT22;38460;53.106;7.004;2024-03-22T14:04:23;10.50;99.90
52565;DHT22;38460;53.106;7.004;2024-03-22T14:06:52;10.50;99.90
52565;DHT22;38460;53.106;7.004;2024-03-22T14:09:18;10.50;99.90
52565;DHT22;38460;53.106;7.004;2024-03-22T14:11:44;10.40;99.90
52565;DHT22;38460;53.106;7.004;2024-03-22T14:14:11;10.40;99.90
52565;DHT22;38460;53.106;7.004;2024-03-22T14:16:40;10.50;99.90
52565;DHT22;38460;53.106;7.004;2024-03-22T14:19:07;10.40;99.90
52565;DHT22;38460;53.106;7.004;2024-03-22T14:21:34;10.40;99.90
52565;DHT22;38460;53.106;7.004;2024-03-22T14:24:00;10.30;99.90
52565;DHT22;38460;53.106;7.004;2024-03-22T14:26:26;10.30;99.90
52565;DHT22;38460;53.106;7.004;2024-03-22T14:28:52;10.30;99.90
52565;DHT22;38460;53.106;7.004;2024-03-22T14:31:18;10.30;99.90
52565;DHT22;38460;53.106;7.004;2024-03-22T14:33:45;10.20;99.90
52565;DHT22;38460;53.106;7.004;2024-03-22T14:36:10;10.20;99.90
52565;DHT22;38460;53.106;7.004;2024-03-22T14:38:38;10.20;99.90
52565;DHT22;38460;53.106;7.004;2024-03-22T14:41:05;10.10;99.90
52565;DHT22;38460;53.106;7.004;2024-03-22T14:43:31;10.10;99.90
52565;DHT22;38460;53.106;7.004;2024-03-22T14:46:00;10.10;99.90
52565;DHT22;38460;53.106;7.004;2024-03-22T14:48:28;10.00;99.90
52565;DHT22;38460;53.106;7.004;2024-03-22T14:50:54;10.00;99.90
52565;DHT22;38460;53.106;7.004;2024-03-22T14:53:22;9.90;99.90
52565;DHT22;38460;53.106;7.004;2024-03-22T14:55:59;9.90;99.90
52565;DHT22;38460;53.106;7.004;2024-03-22T14:58:28;10.00;99.90
52565;DHT22;38460;53.106;7.004;2024-03-22T15:00:54;10.00;99.90
52565;DHT22;38460;53.106;7.004;2024-03-22T15:03:21;10.00;99.90
52565;DHT22;38460;53.106;7.004;2024-03-22T15:05:49;9.90;99.90
52565;DHT22;38460;53.106;7.004;2024-03-22T15:08:15;9.90;99.90
52565;DHT22;38460;53.106;7.004;2024-03-22T15:10:41;9.90;99.90
52565;DHT22;38460;53.106;7.004;2024-03-22T15:13:07;9.80;99.90
52565;DHT22;38460;53.106;7.004;2024-03-22T15:15:35;9.80;99.90
52565;DHT22;38460;53.106;7.004;2024-03-22T15:18:02;9.80;99.90
52565;DHT22;38460;53.106;7.004;2024-03-22T15:20:28;9.80;99.90
52565;DHT22;38460;53.106;7.004;2024-03-22T15:22:54;9.80;99.90
52565;DHT22;38460;53.106;7.004;2024-03-22T15:25:20;9.70;99.90
52565;DHT22;38460;53.106;7.004;2024-03-22T15:27:46;9.70;99.90
52565;DHT22;38460;53.106;7.004;2024-03-22T15:30:13;9.70;99.90
52565;DHT22;38460;53.106;7.004;2024-03-22T15:32:40;9.70;99.90